Terminal Aerodrome Forecast
Issued by NWS Upton, NY

Home | Current Version | Previous Version | Text Only | Print | Product List | Glossary On
Versions: 1 2 3 4 5 6 7 8 9 10 11 12 13 14 15 16 17 18 19 20 21 22 23 24 25 26 27 28 29 30 31 32 33 34 35 36 37
428
FTUS41 KOKX 061739
TAFLGA
TAF
KLGA 061739Z 0618/0718 06017G23KT 2SM -SHRADZ BR OVC008
     FM061900 06017G23KT 3SM -SHRADZ BR OVC009
     FM070000 08014KT 3SM -DZ BR OVC006
     FM070600 06006KT 2SM -DZ BR OVC006
     FM071200 06008KT 5SM BR OVC010=

USA.gov is the U.S. government's official web portal to all federal, state and local government web resources and services.